createdAt,value
2023-02-25T00:01:44.477Z,5.80
2023-02-25T00:04:16.754Z,7.87
2023-02-25T00:06:46.928Z,8.33
2023-02-25T00:09:15.032Z,6.77
2023-02-25T00:11:43.134Z,7.80
2023-02-25T00:14:11.256Z,6.70
2023-02-25T00:16:39.247Z,8.83
2023-02-25T00:19:07.268Z,8.97
2023-02-25T00:21:35.317Z,8.17
2023-02-25T00:24:15.971Z,8.40
2023-02-25T00:26:45.114Z,8.70
2023-02-25T00:29:13.235Z,6.70
2023-02-25T00:31:41.516Z,9.20
2023-02-25T00:34:09.795Z,11.80
2023-02-25T00:36:38.087Z,9.97
2023-02-25T00:39:09.424Z,10.20
2023-02-25T00:41:37.603Z,8.77
2023-02-25T00:44:07.216Z,8.97
2023-02-25T00:46:36.199Z,9.33
2023-02-25T00:49:05.150Z,9.13
2023-02-25T00:51:34.984Z,9.10
2023-02-25T00:54:03.136Z,11.50
2023-02-25T00:56:32.478Z,9.97
2023-02-25T00:59:01.169Z,8.37
2023-02-25T01:01:33.328Z,11.13
2023-02-25T01:04:02.563Z,8.73
2023-02-25T01:06:31.965Z,8.70
2023-02-25T01:09:00.767Z,9.00
2023-02-25T01:11:30.627Z,8.57
2023-02-25T01:14:02.037Z,11.60
2023-02-25T01:16:31.825Z,11.23
2023-02-25T01:19:02.369Z,9.67
2023-02-25T01:21:34.611Z,10.00
2023-02-25T01:24:04.686Z,9.80
2023-02-25T01:26:35.713Z,11.50
2023-02-25T01:29:07.842Z,9.97
2023-02-25T01:31:36.574Z,11.87
2023-02-25T01:34:05.994Z,9.33
2023-02-25T01:36:35.345Z,8.77
2023-02-25T01:39:04.524Z,12.87
2023-02-25T01:41:34.341Z,9.27
2023-02-25T01:44:15.899Z,11.03
2023-02-25T01:46:45.407Z,14.60
2023-02-25T01:49:17.477Z,12.53
2023-02-25T01:51:48.630Z,10.60
2023-02-25T01:54:17.794Z,13.27
2023-02-25T01:56:49.915Z,10.97
2023-02-25T01:59:22.212Z,9.67
2023-02-25T02:01:50.646Z,10.27
2023-02-25T02:04:20.799Z,12.00
2023-02-25T02:06:50.920Z,15.97
2023-02-25T02:09:21.767Z,10.77
2023-02-25T02:11:50.018Z,12.67
2023-02-25T02:14:23.650Z,14.30
2023-02-25T02:17:07.041Z,11.93
2023-02-25T02:19:50.503Z,14.97
2023-02-25T02:22:24.987Z,11.27
2023-02-25T02:25:44.277Z,14.60
2023-02-25T02:28:38.878Z,13.07
2023-02-25T02:31:37.545Z,16.23
2023-02-25T02:34:16.680Z,13.27
2023-02-25T02:36:56.463Z,15.47
2023-02-25T02:39:30.003Z,12.77
2023-02-25T02:42:06.403Z,12.10
2023-02-25T02:44:41.888Z,11.20
2023-02-25T02:47:16.329Z,14.27
2023-02-25T02:49:47.926Z,12.53
2023-02-25T02:52:19.971Z,13.50
2023-02-25T02:54:55.316Z,10.37
2023-02-25T02:57:28.179Z,10.43
2023-02-25T03:00:01.246Z,12.63
2023-02-25T03:02:36.370Z,11.80
2023-02-25T03:05:10.004Z,15.87
2023-02-25T03:07:43.706Z,14.10
2023-02-25T03:10:17.978Z,13.73
2023-02-25T03:12:46.069Z,16.47
2023-02-25T03:15:15.033Z,11.57
2023-02-25T03:17:47.173Z,10.67
2023-02-25T03:20:19.869Z,11.53
2023-02-25T03:22:50.475Z,13.70
2023-02-25T03:25:24.783Z,14.00
2023-02-25T03:27:55.303Z,13.53
2023-02-25T03:30:31.186Z,15.57
2023-02-25T03:33:05.748Z,16.73
2023-02-25T03:35:36.619Z,20.07
2023-02-25T03:38:09.214Z,15.47
2023-02-25T03:40:39.381Z,17.40
2023-02-25T03:43:10.758Z,14.60
2023-02-25T03:45:40.826Z,15.27
2023-02-25T03:48:12.099Z,19.60
2023-02-25T03:50:46.083Z,17.27
2023-02-25T03:53:14.207Z,18.23
2023-02-25T03:55:42.316Z,20.20
2023-02-25T03:58:11.130Z,17.93
2023-02-25T04:00:41.908Z,18.93
2023-02-25T04:03:12.645Z,15.87
2023-02-25T04:05:40.736Z,18.97
2023-02-25T04:08:16.223Z,19.63
2023-02-25T04:10:44.599Z,19.20
2023-02-25T04:13:13.916Z,19.37
2023-02-25T04:15:43.060Z,18.73
2023-02-25T04:18:13.353Z,16.93
2023-02-25T04:20:42.162Z,21.53
2023-02-25T04:23:14.933Z,20.53
2023-02-25T04:25:43.469Z,19.20
2023-02-25T04:28:11.981Z,25.37
2023-02-25T04:30:40.277Z,24.47
2023-02-25T04:33:08.603Z,21.53
2023-02-25T04:35:38.080Z,19.23
2023-02-25T04:38:08.765Z,19.63
2023-02-25T04:40:37.403Z,19.67
2023-02-25T04:43:05.448Z,22.53
2023-02-25T04:45:33.495Z,17.03
2023-02-25T04:48:01.870Z,18.67
2023-02-25T04:50:30.137Z,18.80
2023-02-25T04:53:02.343Z,16.73
2023-02-25T04:55:30.665Z,22.50
2023-02-25T04:57:58.804Z,19.60
2023-02-25T05:00:28.004Z,16.27
2023-02-25T05:02:56.217Z,19.23
2023-02-25T05:05:24.309Z,20.87
2023-02-25T05:07:52.325Z,22.03
2023-02-25T05:10:22.212Z,21.07
2023-02-25T05:12:50.377Z,19.03
2023-02-25T05:15:18.518Z,21.53
2023-02-25T05:17:46.575Z,19.43
2023-02-25T05:20:14.828Z,21.70
2023-02-25T05:22:43.253Z,22.90
2023-02-25T05:25:12.611Z,20.87
2023-02-25T05:27:41.951Z,22.23
2023-02-25T05:30:11.653Z,23.17
2023-02-25T05:32:40.448Z,20.70
2023-02-25T05:35:10.273Z,19.43
2023-02-25T05:37:40.215Z,28.20
2023-02-25T05:40:09.764Z,27.80
2023-02-25T05:42:38.488Z,20.43
2023-02-25T05:45:09.978Z,22.07
2023-02-25T05:47:37.977Z,22.97
2023-02-25T05:50:06.711Z,19.60
2023-02-25T05:52:34.800Z,23.47
2023-02-25T05:55:03.341Z,23.60
2023-02-25T05:57:31.675Z,24.73
2023-02-25T05:59:59.692Z,21.77
2023-02-25T06:02:29.446Z,21.50
2023-02-25T06:04:57.615Z,21.93
2023-02-25T06:07:25.725Z,28.07
2023-02-25T06:09:55.177Z,21.73
2023-02-25T06:12:23.168Z,20.10
2023-02-25T06:14:51.193Z,22.27
2023-02-25T06:17:19.272Z,26.97
2023-02-25T06:19:48.762Z,21.10
2023-02-25T06:22:17.078Z,19.70
2023-02-25T06:24:45.332Z,18.27
2023-02-25T06:27:13.945Z,19.60
2023-02-25T06:29:42.636Z,19.73
2023-02-25T06:32:11.724Z,15.20
2023-02-25T06:34:40.472Z,19.13
2023-02-25T06:37:10.341Z,17.37
2023-02-25T06:39:38.517Z,18.20
2023-02-25T06:42:06.636Z,20.27
2023-02-25T06:44:34.682Z,17.23
2023-02-25T06:47:03.019Z,17.97
2023-02-25T06:49:31.668Z,19.20
2023-02-25T06:51:59.716Z,18.53
2023-02-25T06:54:29.165Z,14.77
2023-02-25T06:56:57.141Z,17.27
2023-02-25T06:59:25.164Z,20.30
2023-02-25T07:01:53.292Z,18.13
2023-02-25T07:04:21.646Z,14.00
2023-02-25T07:06:49.863Z,18.17
2023-02-25T07:09:18.648Z,13.70
2023-02-25T07:11:48.515Z,16.13
2023-02-25T07:14:17.033Z,19.50
2023-02-25T07:16:45.086Z,17.87
2023-02-25T07:19:15.096Z,12.97
2023-02-25T07:21:43.627Z,14.60
2023-02-25T07:24:12.827Z,10.70
2023-02-25T07:26:41.149Z,12.70
2023-02-25T07:29:10.545Z,10.00
2023-02-25T07:31:38.820Z,11.97
2023-02-25T07:34:07.669Z,11.40
2023-02-25T07:36:37.987Z,9.33
2023-02-25T07:39:08.547Z,9.83
2023-02-25T07:41:37.272Z,9.87
2023-02-25T07:44:06.132Z,11.50
2023-02-25T07:46:35.849Z,10.00
2023-02-25T07:49:04.218Z,11.53
2023-02-25T07:51:32.343Z,10.20
2023-02-25T07:54:00.711Z,10.93
2023-02-25T07:56:30.899Z,8.70
2023-02-25T07:58:59.193Z,8.50
2023-02-25T08:01:29.370Z,6.67
2023-02-25T08:04:00.703Z,5.07
2023-02-25T08:06:29.350Z,4.13
2023-02-25T08:08:57.564Z,3.00
2023-02-25T08:11:27.576Z,2.93
2023-02-25T08:13:55.949Z,3.20
2023-02-25T08:16:24.338Z,3.37
2023-02-25T08:18:53.705Z,3.87
2023-02-25T08:21:24.653Z,3.13
2023-02-25T08:23:53.213Z,3.17
2023-02-25T08:26:23.544Z,2.77
2023-02-25T08:28:52.552Z,4.47
2023-02-25T08:31:22.862Z,2.93
2023-02-25T08:33:52.998Z,3.37
2023-02-25T08:36:24.869Z,4.07
2023-02-25T08:38:54.194Z,2.97
2023-02-25T08:41:23.913Z,3.13
2023-02-25T08:43:54.659Z,2.70
2023-02-25T08:46:23.971Z,2.80
2023-02-25T08:48:52.958Z,3.37
2023-02-25T08:51:25.350Z,3.20
2023-02-25T08:53:53.515Z,2.90
2023-02-25T08:56:21.542Z,2.73
2023-02-25T08:58:50.131Z,4.10
2023-02-25T09:01:19.335Z,2.63
2023-02-25T09:03:52.956Z,3.67
2023-02-25T09:06:25.038Z,3.87
2023-02-25T09:08:54.992Z,3.27
2023-02-25T09:11:24.929Z,2.77
2023-02-25T09:13:54.221Z,3.83
2023-02-25T09:16:22.862Z,4.93
2023-02-25T09:18:52.421Z,4.97
2023-02-25T09:21:22.843Z,4.60
2023-02-25T09:23:52.396Z,4.07
2023-02-25T09:26:21.726Z,4.50
2023-02-25T09:28:50.284Z,5.80
2023-02-25T09:31:19.643Z,5.77
2023-02-25T09:33:48.019Z,6.03
2023-02-25T09:36:19.088Z,4.90
2023-02-25T09:38:50.595Z,5.50
2023-02-25T09:41:29.665Z,5.53
2023-02-25T09:44:06.813Z,4.07
2023-02-25T09:46:41.400Z,3.87
2023-02-25T09:49:17.734Z,6.23
2023-02-25T09:51:49.830Z,4.33
2023-02-25T09:54:24.984Z,4.83
2023-02-25T09:56:55.783Z,4.93
2023-02-25T09:59:25.035Z,5.67
2023-02-25T10:01:58.019Z,5.77
2023-02-25T10:04:33.297Z,6.67
2023-02-25T10:07:09.965Z,4.67
2023-02-25T10:09:47.621Z,5.40
2023-02-25T10:12:29.981Z,5.37
2023-02-25T10:15:15.877Z,4.20
2023-02-25T10:17:57.191Z,5.23
2023-02-25T10:20:47.982Z,4.13
2023-02-25T10:23:27.276Z,4.33
2023-02-25T10:26:02.805Z,4.20
2023-02-25T10:28:32.526Z,4.87
2023-02-25T10:31:07.226Z,4.97
2023-02-25T10:33:37.959Z,4.17
2023-02-25T10:36:11.223Z,4.60
2023-02-25T10:38:42.246Z,3.73
2023-02-25T10:41:11.997Z,4.13
2023-02-25T10:43:40.051Z,4.63
2023-02-25T10:46:15.370Z,4.30
2023-02-25T10:48:56.658Z,4.00
2023-02-25T10:51:27.535Z,5.53
2023-02-25T10:54:14.973Z,3.80
2023-02-25T10:56:47.064Z,3.77
2023-02-25T10:59:30.211Z,4.27
2023-02-25T11:02:00.735Z,10.20
2023-02-25T11:04:38.154Z,4.33
2023-02-25T11:07:25.931Z,7.00
2023-02-25T11:10:17.210Z,4.67
2023-02-25T11:12:48.367Z,3.93
2023-02-25T11:15:44.270Z,4.53
2023-02-25T11:18:21.481Z,8.17
2023-02-25T11:20:52.390Z,5.17
2023-02-25T11:23:25.638Z,5.53
2023-02-25T11:25:55.069Z,6.43
2023-02-25T11:28:31.883Z,5.10
2023-02-25T11:31:10.348Z,5.17
2023-02-25T11:33:41.807Z,4.70
2023-02-25T11:36:10.964Z,3.77
2023-02-25T11:38:41.324Z,4.73
2023-02-25T11:41:18.649Z,5.47
2023-02-25T11:43:48.849Z,4.30
2023-02-25T11:46:23.197Z,5.87
2023-02-25T11:48:54.599Z,5.03
2023-02-25T11:51:27.759Z,4.40
2023-02-25T11:54:14.039Z,3.73
2023-02-25T11:56:48.677Z,6.00
2023-02-25T11:59:37.406Z,5.03
2023-02-25T12:02:27.748Z,5.47
2023-02-25T12:05:34.509Z,7.27
2023-02-25T12:08:33.150Z,3.83
2023-02-25T12:11:37.502Z,3.93
2023-02-25T12:14:42.784Z,3.20
2023-02-25T12:17:26.739Z,6.27
2023-02-25T12:20:27.718Z,5.13
2023-02-25T12:23:34.074Z,6.53
2023-02-25T12:26:09.751Z,3.53
2023-02-25T12:28:58.734Z,7.07
2023-02-25T12:31:59.731Z,3.63
2023-02-25T12:35:07.161Z,2.67
2023-02-25T12:37:59.377Z,4.17
2023-02-25T12:40:40.792Z,4.90
2023-02-25T12:43:25.688Z,3.37
2023-02-25T12:46:06.631Z,2.93
2023-02-25T12:49:05.998Z,4.03
2023-02-25T12:51:48.142Z,4.77
2023-02-25T12:54:48.177Z,4.63
2023-02-25T12:57:34.521Z,4.57
2023-02-25T13:00:34.489Z,2.77
2023-02-25T13:03:24.399Z,3.50
2023-02-25T13:06:07.850Z,8.50
2023-02-25T13:08:50.633Z,4.67
2023-02-25T13:11:34.566Z,6.20
2023-02-25T13:14:26.906Z,4.47
2023-02-25T13:17:14.443Z,6.23
2023-02-25T13:20:33.069Z,3.90
2023-02-25T13:23:17.587Z,6.73
2023-02-25T13:25:56.854Z,5.23
2023-02-25T13:28:39.738Z,3.80
2023-02-25T13:31:14.098Z,4.10
2023-02-25T13:33:58.021Z,3.53
2023-02-25T13:36:40.377Z,2.60
2023-02-25T13:39:23.797Z,2.53
2023-02-25T13:42:16.199Z,2.00
2023-02-25T13:45:15.124Z,2.47
2023-02-25T13:47:58.307Z,3.03
2023-02-25T13:50:56.803Z,10.00
2023-02-25T13:53:57.093Z,4.93
2023-02-25T13:56:52.338Z,2.27
2023-02-25T13:59:38.209Z,4.60
2023-02-25T14:02:20.192Z,2.20
2023-02-25T14:05:26.833Z,2.73
2023-02-25T14:08:27.438Z,2.67
2023-02-25T14:11:03.373Z,2.37
2023-02-25T14:13:59.310Z,4.40
2023-02-25T14:16:48.575Z,3.63
2023-02-25T14:19:41.591Z,10.87
2023-02-25T14:22:29.218Z,8.57
2023-02-25T14:25:08.084Z,9.63
2023-02-25T14:27:43.017Z,2.00
2023-02-25T14:30:23.007Z,3.40
2023-02-25T14:33:01.735Z,4.20
2023-02-25T14:35:56.093Z,4.17
2023-02-25T14:38:34.518Z,2.40
2023-02-25T14:41:16.678Z,3.87
2023-02-25T14:43:47.611Z,4.73
2023-02-25T14:46:26.141Z,2.97
2023-02-25T14:49:01.956Z,4.00
2023-02-25T14:51:59.958Z,3.57
2023-02-25T14:54:58.025Z,4.87
2023-02-25T14:57:56.619Z,7.50
2023-02-25T15:00:46.706Z,3.17
2023-02-25T15:03:36.810Z,6.63
2023-02-25T15:06:20.082Z,5.47
2023-02-25T15:09:38.549Z,6.77
2023-02-25T15:12:23.457Z,5.60
2023-02-25T15:15:09.130Z,7.70
2023-02-25T15:18:04.886Z,5.60
2023-02-25T15:20:39.023Z,4.27
2023-02-25T15:23:10.028Z,4.43
2023-02-25T15:25:50.854Z,5.57
2023-02-25T15:28:42.440Z,3.23
2023-02-25T15:31:28.797Z,2.37
2023-02-25T15:34:33.942Z,3.30
2023-02-25T15:37:33.955Z,9.37
2023-02-25T15:40:38.408Z,6.33
2023-02-25T15:43:38.703Z,4.60
2023-02-25T15:46:40.402Z,7.03
2023-02-25T15:49:23.388Z,6.30
2023-02-25T15:51:54.281Z,6.57
2023-02-25T15:54:51.064Z,6.40
2023-02-25T15:57:41.879Z,4.13
2023-02-25T16:00:52.869Z,2.77
2023-02-25T16:03:40.053Z,6.70
2023-02-25T16:06:14.395Z,2.47
2023-02-25T16:08:48.455Z,3.77
2023-02-25T16:11:34.933Z,8.33
2023-02-25T16:14:07.101Z,4.27
2023-02-25T16:16:37.736Z,4.80
2023-02-25T16:19:08.985Z,3.40
2023-02-25T16:21:47.245Z,8.10
2023-02-25T16:24:15.564Z,4.07
2023-02-25T16:26:51.273Z,2.40
2023-02-25T16:29:34.963Z,4.47
2023-02-25T16:32:05.572Z,2.30
2023-02-25T16:34:38.904Z,5.23
2023-02-25T16:37:15.094Z,7.10
2023-02-25T16:39:43.394Z,5.57
2023-02-25T16:42:15.115Z,8.77
2023-02-25T16:44:48.095Z,10.20
2023-02-25T16:47:24.746Z,6.10
2023-02-25T16:49:55.408Z,7.50
2023-02-25T16:52:30.409Z,7.30
2023-02-25T16:55:01.788Z,5.73
2023-02-25T16:57:29.815Z,4.80
2023-02-25T17:00:14.305Z,9.40
2023-02-25T17:02:46.991Z,11.17
2023-02-25T17:05:27.275Z,4.43
2023-02-25T17:07:59.867Z,5.93
2023-02-25T17:10:30.219Z,5.97
2023-02-25T17:12:58.955Z,3.80
2023-02-25T17:15:30.209Z,6.90
2023-02-25T17:18:04.356Z,3.60
2023-02-25T17:20:32.563Z,5.43
2023-02-25T17:23:07.287Z,6.67
2023-02-25T17:25:39.240Z,5.37
2023-02-25T17:28:09.085Z,4.40
2023-02-25T17:30:40.865Z,4.33
2023-02-25T17:33:22.241Z,4.53
2023-02-25T17:35:53.538Z,2.63
2023-02-25T17:38:24.909Z,5.57
2023-02-25T17:40:55.204Z,9.73
2023-02-25T17:43:25.231Z,9.57
2023-02-25T17:45:58.314Z,5.77
2023-02-25T17:48:28.612Z,7.23
2023-02-25T17:50:59.631Z,4.93
2023-02-25T17:53:43.303Z,5.40
2023-02-25T17:56:24.788Z,3.90
2023-02-25T17:58:54.168Z,5.27
2023-02-25T18:01:25.749Z,5.80
2023-02-25T18:03:55.094Z,4.20
2023-02-25T18:06:47.678Z,7.80
2023-02-25T18:09:47.380Z,11.53
2023-02-25T18:12:23.949Z,7.10
2023-02-25T18:14:55.780Z,10.87
2023-02-25T18:17:28.352Z,15.87
2023-02-25T18:19:57.714Z,18.77
2023-02-25T18:22:31.428Z,7.97
2023-02-25T18:25:02.890Z,8.77
2023-02-25T18:27:32.826Z,20.20
2023-02-25T18:30:15.780Z,7.93
2023-02-25T18:32:43.861Z,12.37
2023-02-25T18:35:11.958Z,17.23
2023-02-25T18:37:40.757Z,14.83
2023-02-25T18:40:16.805Z,17.97
2023-02-25T18:42:45.180Z,10.77
2023-02-25T18:45:18.197Z,8.00
2023-02-25T18:47:46.489Z,11.50
2023-02-25T18:50:15.013Z,8.57
2023-02-25T18:52:43.655Z,5.90
2023-02-25T18:55:18.589Z,3.77
2023-02-25T18:57:46.888Z,5.87
2023-02-25T19:00:16.703Z,8.10
2023-02-25T19:02:48.937Z,7.43
2023-02-25T19:05:17.758Z,6.60
2023-02-25T19:07:46.239Z,8.23
2023-02-25T19:10:19.180Z,7.10
2023-02-25T19:12:49.514Z,7.37
2023-02-25T19:15:20.625Z,5.73
2023-02-25T19:17:49.293Z,7.30
2023-02-25T19:20:19.129Z,8.73
2023-02-25T19:22:48.794Z,8.90
2023-02-25T19:25:21.890Z,5.53
2023-02-25T19:27:50.634Z,5.33
2023-02-25T19:30:23.029Z,9.33
2023-02-25T19:32:51.170Z,6.13
2023-02-25T19:35:19.479Z,7.43
2023-02-25T19:37:47.627Z,9.73
2023-02-25T19:40:18.478Z,5.37
2023-02-25T19:42:47.063Z,4.93
2023-02-25T19:45:17.338Z,8.43
2023-02-25T19:47:45.600Z,7.00
2023-02-25T19:50:14.016Z,4.00
2023-02-25T19:52:42.392Z,4.17
2023-02-25T19:55:12.404Z,5.70
2023-02-25T19:57:42.622Z,4.10
2023-02-25T20:00:13.965Z,4.57
2023-02-25T20:02:42.645Z,3.63
2023-02-25T20:05:11.721Z,9.87
2023-02-25T20:07:39.832Z,4.77
2023-02-25T20:10:11.171Z,7.00
2023-02-25T20:12:39.610Z,6.83
2023-02-25T20:15:10.881Z,5.90
2023-02-25T20:17:39.203Z,4.57
2023-02-25T20:20:09.099Z,5.43
2023-02-25T20:22:37.992Z,7.10
2023-02-25T20:25:06.955Z,6.73
2023-02-25T20:27:37.188Z,6.23
2023-02-25T20:30:06.768Z,6.73
2023-02-25T20:32:36.417Z,5.07
2023-02-25T20:35:05.281Z,6.03
2023-02-25T20:37:37.358Z,6.97
2023-02-25T20:40:08.285Z,5.03
2023-02-25T20:42:36.668Z,3.57
2023-02-25T20:45:06.274Z,3.53
2023-02-25T20:47:37.232Z,3.83
2023-02-25T20:50:08.880Z,2.50
2023-02-25T20:52:37.067Z,3.40
2023-02-25T20:55:06.755Z,4.30
2023-02-25T20:57:35.289Z,3.70
2023-02-25T21:00:03.774Z,3.27
2023-02-25T21:02:31.878Z,3.70
2023-02-25T21:05:01.545Z,3.90
2023-02-25T21:07:29.677Z,3.33
2023-02-25T21:09:57.851Z,2.17
2023-02-25T21:12:25.952Z,3.40
2023-02-25T21:14:54.071Z,2.20
2023-02-25T21:17:22.374Z,5.37
2023-02-25T21:19:50.575Z,3.37
2023-02-25T21:22:19.950Z,5.07
2023-02-25T21:24:48.071Z,2.97
2023-02-25T21:27:16.152Z,3.10
2023-02-25T21:29:44.275Z,3.13
2023-02-25T21:32:12.328Z,2.87
2023-02-25T21:34:40.502Z,5.20
2023-02-25T21:37:08.576Z,5.73
2023-02-25T21:39:38.120Z,4.10
2023-02-25T21:42:06.444Z,3.03
2023-02-25T21:44:34.537Z,3.47
2023-02-25T21:47:02.912Z,2.33
2023-02-25T21:49:31.927Z,2.10
2023-02-25T21:52:00.134Z,3.07
2023-02-25T21:54:28.445Z,3.77
2023-02-25T21:56:58.132Z,2.37
2023-02-25T21:59:27.738Z,3.97
2023-02-25T22:01:56.044Z,4.00
2023-02-25T22:04:24.171Z,1.60
2023-02-25T22:06:52.485Z,4.33
2023-02-25T22:09:20.616Z,2.10
2023-02-25T22:11:48.654Z,3.43
2023-02-25T22:14:18.110Z,3.00
2023-02-25T22:16:46.130Z,7.97
2023-02-25T22:19:14.149Z,3.87
2023-02-25T22:21:42.529Z,2.87
2023-02-25T22:24:10.912Z,4.73
2023-02-25T22:26:39.062Z,3.53
2023-02-25T22:29:09.447Z,2.43
2023-02-25T22:31:38.981Z,3.63
2023-02-25T22:34:08.336Z,8.00
2023-02-25T22:36:36.386Z,4.90
2023-02-25T22:39:06.136Z,4.80
2023-02-25T22:41:34.392Z,10.97
2023-02-25T22:44:03.095Z,13.63
2023-02-25T22:46:33.517Z,14.33
2023-02-25T22:49:04.632Z,8.70
2023-02-25T22:51:34.986Z,16.03
2023-02-25T22:54:04.824Z,4.63
2023-02-25T22:56:33.067Z,19.43
2023-02-25T22:59:01.222Z,10.27
2023-02-25T23:01:29.707Z,13.60
2023-02-25T23:03:58.552Z,9.17
2023-02-25T23:06:42.852Z,32.73
2023-02-25T23:09:12.118Z,10.30
2023-02-25T23:11:42.218Z,17.80
2023-02-25T23:14:10.664Z,8.70
2023-02-25T23:16:40.864Z,11.97
2023-02-25T23:19:11.054Z,11.87
2023-02-25T23:21:40.758Z,19.13
2023-02-25T23:24:10.361Z,12.27
2023-02-25T23:26:40.911Z,16.87
2023-02-25T23:29:10.712Z,19.00
2023-02-25T23:31:42.401Z,8.97
2023-02-25T23:34:12.978Z,10.67
2023-02-25T23:36:45.260Z,10.80
2023-02-25T23:39:15.016Z,15.13
2023-02-25T23:41:43.276Z,9.57
2023-02-25T23:44:13.829Z,3.83
2023-02-25T23:46:44.902Z,8.80
2023-02-25T23:49:15.518Z,5.93
2023-02-25T23:51:46.912Z,7.20
2023-02-25T23:54:17.683Z,7.00
2023-02-25T23:56:46.255Z,5.70
2023-02-25T23:59:14.993Z,4.10
